createdAt,value
2023-12-27T00:00:05.880Z,100516.66
2023-12-27T00:02:32.790Z,100512.06
2023-12-27T00:04:59.429Z,100526.09
2023-12-27T00:07:26.105Z,100527.75
2023-12-27T00:09:52.803Z,100540.09
2023-12-27T00:12:19.581Z,100546.88
2023-12-27T00:14:46.252Z,100536.97
2023-12-27T00:17:12.976Z,100550.75
2023-12-27T00:19:39.795Z,100550.75
2023-12-27T00:22:06.532Z,100551.47
2023-12-27T00:24:33.634Z,100549.78
2023-12-27T00:27:00.353Z,100563.81
2023-12-27T00:29:27.070Z,100575.28
2023-12-27T00:31:53.805Z,100586.13
2023-12-27T00:34:20.488Z,100594.97
2023-12-27T00:36:47.233Z,100575.28
2023-12-27T00:39:13.967Z,100600.75
2023-12-27T00:41:40.640Z,100588.22
2023-12-27T00:44:07.352Z,100578.31
2023-12-27T00:46:34.048Z,100583.63
2023-12-27T00:49:00.784Z,100600.31
2023-12-27T00:51:27.525Z,100582.69
2023-12-27T00:53:54.250Z,100591.84
2023-12-27T00:56:20.896Z,100612.84
2023-12-27T00:58:47.576Z,100599.56
2023-12-27T01:01:14.539Z,100606.69
2023-12-27T01:03:42.222Z,100610.19
2023-12-27T01:06:10.307Z,100617.22
2023-12-27T01:08:37.568Z,100626.66
2023-12-27T01:11:04.795Z,100628.59
2023-12-27T01:13:31.603Z,100649.59
2023-12-27T01:16:00.398Z,100659.38
2023-12-27T01:18:27.728Z,100654.91
2023-12-27T01:20:54.576Z,100656.63
2023-12-27T01:23:21.241Z,100661.69
2023-12-27T01:25:47.937Z,100656.16
2023-12-27T01:28:14.873Z,100666.69
2023-12-27T01:30:41.792Z,100661.22
2023-12-27T01:33:08.720Z,100654.47
2023-12-27T01:35:35.450Z,100669.56
2023-12-27T01:38:03.196Z,100670.41
2023-12-27T01:40:31.338Z,100688.78
2023-12-27T01:42:58.291Z,100708.25
2023-12-27T01:45:25.246Z,100689.53
2023-12-27T01:47:51.995Z,100707.94
2023-12-27T01:50:19.527Z,100696.31
2023-12-27T01:52:46.232Z,100709.41
2023-12-27T01:55:13.128Z,100699.72
2023-12-27T01:57:40.336Z,100702.25
2023-12-27T02:00:08.577Z,100719.06
2023-12-27T02:02:35.280Z,100718.41
2023-12-27T02:05:02.038Z,100732.44
2023-12-27T02:07:31.084Z,100733.31
2023-12-27T02:09:58.914Z,100747.56
2023-12-27T02:12:27.139Z,100736.31
2023-12-27T02:14:53.940Z,100744.16
2023-12-27T02:17:22.712Z,100760.22
2023-12-27T02:19:50.096Z,100752.97
2023-12-27T02:22:20.936Z,100758.44
2023-12-27T02:24:56.644Z,100762.03
2023-12-27T02:27:24.103Z,100765.44
2023-12-27T02:29:50.903Z,100760.38
2023-12-27T02:32:17.534Z,100780.75
2023-12-27T02:34:44.501Z,100770.13
2023-12-27T02:37:11.329Z,100790.34
2023-12-27T02:39:37.983Z,100791.06
2023-12-27T02:42:04.748Z,100795.31
2023-12-27T02:44:31.449Z,100797.13
2023-12-27T02:46:58.117Z,100814.75
2023-12-27T02:49:24.875Z,100810.63
2023-12-27T02:51:51.679Z,100819.25
2023-12-27T02:54:18.339Z,100839.53
2023-12-27T02:56:45.185Z,100837.75
2023-12-27T02:59:11.927Z,100844.00
2023-12-27T03:01:38.558Z,100852.97
2023-12-27T03:04:05.247Z,100837.75
2023-12-27T03:06:31.980Z,100857.94
2023-12-27T03:08:58.799Z,100846.56
2023-12-27T03:11:25.535Z,100858.78
2023-12-27T03:13:52.165Z,100868.69
2023-12-27T03:16:20.550Z,100867.94
2023-12-27T03:18:47.347Z,100869.66
2023-12-27T03:21:14.144Z,100888.47
2023-12-27T03:23:40.795Z,100885.47
2023-12-27T03:26:07.540Z,100887.94
2023-12-27T03:28:34.212Z,100890.47
2023-12-27T03:31:01.179Z,100894.09
2023-12-27T03:33:28.137Z,100893.13
2023-12-27T03:35:54.911Z,100896.63
2023-12-27T03:38:21.614Z,100900.13
2023-12-27T03:40:48.341Z,100904.53
2023-12-27T03:43:15.427Z,100916.84
2023-12-27T03:45:42.242Z,100913.22
2023-12-27T03:48:09.305Z,100923.13
2023-12-27T03:50:36.166Z,100915.91
2023-12-27T03:53:02.920Z,100918.03
2023-12-27T03:55:29.710Z,100917.56
2023-12-27T03:57:56.576Z,100923.88
2023-12-27T04:00:23.453Z,100924.63
2023-12-27T04:02:50.276Z,100927.28
2023-12-27T04:05:17.050Z,100922.91
2023-12-27T04:07:43.729Z,100932.34
2023-12-27T04:10:10.537Z,100941.06
2023-12-27T04:12:37.291Z,100941.06
2023-12-27T04:15:04.450Z,100948.09
2023-12-27T04:17:31.268Z,100949.78
2023-12-27T04:19:58.244Z,100955.97
2023-12-27T04:22:24.888Z,100959.38
2023-12-27T04:24:51.581Z,100963.09
2023-12-27T04:27:18.227Z,100970.31
2023-12-27T04:29:44.914Z,100968.63
2023-12-27T04:32:11.573Z,100988.09
2023-12-27T04:34:38.372Z,100988.94
2023-12-27T04:37:06.723Z,100987.25
2023-12-27T04:39:34.606Z,100999.59
2023-12-27T04:42:01.424Z,101009.19
2023-12-27T04:44:28.125Z,101014.50
2023-12-27T04:46:54.851Z,101025.75
2023-12-27T04:49:21.688Z,101013.19
2023-12-27T04:51:48.616Z,101023.63
2023-12-27T04:54:15.328Z,101037.88
2023-12-27T04:56:41.982Z,101040.22
2023-12-27T04:59:08.990Z,101050.22
2023-12-27T05:01:35.682Z,101045.66
2023-12-27T05:04:02.469Z,101051.16
2023-12-27T05:06:29.273Z,101052.88
2023-12-27T05:08:55.991Z,101054.25
2023-12-27T05:11:23.013Z,101059.38
2023-12-27T05:13:50.188Z,101063.84
2023-12-27T05:16:18.886Z,101068.31
2023-12-27T05:18:46.276Z,101073.84
2023-12-27T05:21:14.847Z,101080.44
2023-12-27T05:23:41.696Z,101088.53
2023-12-27T05:26:08.504Z,101097.47
2023-12-27T05:28:35.271Z,101104.47
2023-12-27T05:31:02.238Z,101084.19
2023-12-27T05:33:29.226Z,101099.41
2023-12-27T05:35:58.241Z,101110.03
2023-12-27T05:38:25.324Z,101120.66
2023-12-27T05:40:52.007Z,101113.63
2023-12-27T05:43:18.888Z,101126.00
2023-12-27T05:45:45.625Z,101113.63
2023-12-27T05:48:13.606Z,101121.50
2023-12-27T05:50:40.343Z,101124.16
2023-12-27T05:53:07.132Z,101141.72
2023-12-27T05:55:33.997Z,101139.81
2023-12-27T05:58:00.734Z,101141.72
2023-12-27T06:00:27.514Z,101152.34
2023-12-27T06:02:54.361Z,101152.44
2023-12-27T06:05:21.376Z,101153.44
2023-12-27T06:07:48.366Z,101164.16
2023-12-27T06:10:16.169Z,101175.78
2023-12-27T06:12:42.917Z,101181.19
2023-12-27T06:15:12.232Z,101189.06
2023-12-27T06:17:39.504Z,101193.50
2023-12-27T06:20:09.165Z,101177.56
2023-12-27T06:22:35.999Z,101188.31
2023-12-27T06:25:02.739Z,101202.56
2023-12-27T06:27:29.539Z,101187.75
2023-12-27T06:29:56.277Z,101195.97
2023-12-27T06:32:23.695Z,101209.25
2023-12-27T06:34:50.500Z,101213.81
2023-12-27T06:37:17.327Z,101225.09
2023-12-27T06:39:44.259Z,101228.72
2023-12-27T06:42:11.089Z,101235.19
2023-12-27T06:44:37.935Z,101246.59
2023-12-27T06:47:04.728Z,101249.16
2023-12-27T06:49:31.685Z,101246.59
2023-12-27T06:51:58.486Z,101254.88
2023-12-27T06:54:25.459Z,101260.94
2023-12-27T06:56:52.172Z,101256.75
2023-12-27T06:59:18.871Z,101252.22
2023-12-27T07:01:45.743Z,101255.81
2023-12-27T07:04:12.809Z,101268.03
2023-12-27T07:06:40.481Z,101274.41
2023-12-27T07:09:08.621Z,101284.22
2023-12-27T07:11:35.378Z,101297.59
2023-12-27T07:14:02.135Z,101289.81
2023-12-27T07:16:28.871Z,101289.06
2023-12-27T07:18:55.686Z,101287.38
2023-12-27T07:21:22.553Z,101309.28
2023-12-27T07:23:49.351Z,101295.03
2023-12-27T07:26:16.061Z,101311.66
2023-12-27T07:28:43.317Z,101318.69
2023-12-27T07:31:10.124Z,101320.38
2023-12-27T07:33:38.527Z,101322.38
2023-12-27T07:36:06.002Z,101327.91
2023-12-27T07:38:32.666Z,101328.19
2023-12-27T07:40:59.317Z,101343.28
2023-12-27T07:43:26.676Z,101346.03
2023-12-27T07:45:53.553Z,101344.44
2023-12-27T07:48:20.322Z,101360.47
2023-12-27T07:50:47.569Z,101357.19
2023-12-27T07:53:14.240Z,101364.50
2023-12-27T07:55:40.959Z,101371.50
2023-12-27T07:58:09.596Z,101377.19
2023-12-27T08:00:36.739Z,101385.16
2023-12-27T08:03:09.648Z,101381.97
2023-12-27T08:05:37.290Z,101393.53
2023-12-27T08:08:07.165Z,101398.84
2023-12-27T08:10:33.872Z,101395.44
2023-12-27T08:13:01.488Z,101400.75
2023-12-27T08:15:28.346Z,101421.06
2023-12-27T08:17:56.354Z,101415.00
2023-12-27T08:20:25.301Z,101416.69
2023-12-27T08:22:52.664Z,101414.78
2023-12-27T08:25:19.443Z,101419.16
2023-12-27T08:27:46.246Z,101432.25
2023-12-27T08:30:13.312Z,101442.88
2023-12-27T08:32:40.620Z,101436.63
2023-12-27T08:35:07.889Z,101437.38
2023-12-27T08:37:34.514Z,101445.38
2023-12-27T08:40:01.198Z,101439.09
2023-12-27T08:42:27.968Z,101448.78
2023-12-27T08:44:54.633Z,101462.25
2023-12-27T08:47:21.354Z,101467.38
2023-12-27T08:49:48.702Z,101465.66
2023-12-27T08:52:15.405Z,101477.25
2023-12-27T08:54:42.262Z,101484.34
2023-12-27T08:57:10.502Z,101490.72
2023-12-27T08:59:37.228Z,101485.41
2023-12-27T09:02:05.057Z,101499.44
2023-12-27T09:04:31.848Z,101486.25
2023-12-27T09:06:58.616Z,101480.00
2023-12-27T09:09:25.367Z,101486.75
2023-12-27T09:11:52.050Z,101483.81
2023-12-27T09:14:18.680Z,101489.78
2023-12-27T09:16:45.619Z,101487.88
2023-12-27T09:19:13.511Z,101508.97
2023-12-27T09:21:47.103Z,101497.19
2023-12-27T09:24:14.812Z,101506.88
2023-12-27T09:26:42.111Z,101515.03
2023-12-27T09:29:12.572Z,101510.69
2023-12-27T09:31:39.645Z,101520.25
2023-12-27T09:34:07.223Z,101522.06
2023-12-27T09:36:34.222Z,101517.91
2023-12-27T09:39:01.152Z,101514.84
2023-12-27T09:41:27.864Z,101536.13
2023-12-27T09:43:56.279Z,101526.53
2023-12-27T09:46:25.717Z,101535.34
2023-12-27T09:48:52.887Z,101534.59
2023-12-27T09:51:24.692Z,101541.59
2023-12-27T09:53:52.648Z,101530.81
2023-12-27T09:56:27.115Z,101537.06
2023-12-27T09:59:01.168Z,101521.88
2023-12-27T10:01:31.187Z,101544.94
2023-12-27T10:04:12.837Z,101553.59
2023-12-27T10:06:44.658Z,101555.28
2023-12-27T10:09:15.263Z,101549.22
2023-12-27T10:11:44.033Z,101545.41
2023-12-27T10:14:11.419Z,101567.44
2023-12-27T10:16:38.139Z,101553.22
2023-12-27T10:19:09.526Z,101571.63
2023-12-27T10:21:43.745Z,101564.78
2023-12-27T10:24:13.940Z,101569.34
2023-12-27T10:26:40.618Z,101552.53
2023-12-27T10:29:09.309Z,101555.13
2023-12-27T10:31:36.319Z,101557.00
2023-12-27T10:34:05.224Z,101566.59
2023-12-27T10:36:32.346Z,101569.34
2023-12-27T10:39:04.132Z,101565.75
2023-12-27T10:41:33.686Z,101560.44
2023-12-27T10:44:01.989Z,101562.88
2023-12-27T10:46:28.814Z,101564.69
2023-12-27T10:48:57.917Z,101564.63
2023-12-27T10:51:26.997Z,101568.97
2023-12-27T10:54:00.362Z,101569.84
2023-12-27T10:56:27.909Z,101571.75
2023-12-27T10:58:55.061Z,101584.06
2023-12-27T11:01:23.175Z,101581.50
2023-12-27T11:03:51.378Z,101595.75
2023-12-27T11:06:18.817Z,101583.41
2023-12-27T11:08:48.120Z,101582.47
2023-12-27T11:11:15.683Z,101603.53
2023-12-27T11:13:43.855Z,101593.66
2023-12-27T11:16:13.781Z,101586.44
2023-12-27T11:18:41.683Z,101580.78
2023-12-27T11:21:08.409Z,101582.09
2023-12-27T11:23:35.270Z,101590.66
2023-12-27T11:26:03.308Z,101598.44
2023-12-27T11:28:33.777Z,101599.22
2023-12-27T11:31:01.080Z,101607.09
2023-12-27T11:33:30.448Z,101611.56
2023-12-27T11:35:59.317Z,101622.38
2023-12-27T11:38:29.744Z,101633.22
2023-12-27T11:40:58.548Z,101618.13
2023-12-27T11:43:27.522Z,101623.22
2023-12-27T11:46:01.387Z,101617.66
2023-12-27T11:48:37.558Z,101622.22
2023-12-27T11:51:29.519Z,101630.38
2023-12-27T11:53:57.179Z,101613.47
2023-12-27T11:56:24.540Z,101617.91
2023-12-27T11:58:51.273Z,101613.47
2023-12-27T12:01:29.814Z,101631.13
2023-12-27T12:04:16.113Z,101611.66
2023-12-27T12:06:55.182Z,101627.69
2023-12-27T12:09:28.428Z,101624.28
2023-12-27T12:11:55.369Z,101626.94
2023-12-27T12:14:22.955Z,101627.22
2023-12-27T12:16:51.197Z,101624.50
2023-12-27T12:19:19.136Z,101620.09
2023-12-27T12:21:47.138Z,101622.75
2023-12-27T12:24:16.021Z,101631.69
2023-12-27T12:26:47.118Z,101642.34
2023-12-27T12:29:13.839Z,101644.25
2023-12-27T12:31:41.574Z,101646.78
2023-12-27T12:34:08.421Z,101636.13
2023-12-27T12:36:35.367Z,101645.75
2023-12-27T12:39:04.893Z,101643.88
2023-12-27T12:41:32.712Z,101631.41
2023-12-27T12:43:59.397Z,101631.88
2023-12-27T12:46:26.462Z,101644.25
2023-12-27T12:48:53.398Z,101646.31
2023-12-27T12:51:21.243Z,101633.78
2023-12-27T12:53:48.497Z,101649.66
2023-12-27T12:56:15.702Z,101642.34
2023-12-27T12:58:43.351Z,101650.31
2023-12-27T13:01:13.662Z,101642.44
2023-12-27T13:03:43.113Z,101660.97
2023-12-27T13:06:14.619Z,101652.97
2023-12-27T13:08:42.436Z,101654.69
2023-12-27T13:11:09.920Z,101652.78
2023-12-27T13:13:36.615Z,101660.00
2023-12-27T13:16:03.329Z,101655.81
2023-12-27T13:18:30.458Z,101644.59
2023-12-27T13:20:57.489Z,101658.00
2023-12-27T13:23:24.160Z,101661.00
2023-12-27T13:25:50.881Z,101669.06
2023-12-27T13:28:26.348Z,101664.88
2023-12-27T13:30:56.889Z,101672.19
2023-12-27T13:33:26.297Z,101676.03
2023-12-27T13:35:53.347Z,101679.66
2023-12-27T13:38:20.255Z,101685.16
2023-12-27T13:40:47.080Z,101678.13
2023-12-27T13:43:15.359Z,101698.34
2023-12-27T13:45:42.270Z,101684.31
2023-12-27T13:48:09.206Z,101682.75
2023-12-27T13:50:36.667Z,101701.66
2023-12-27T13:53:03.490Z,101685.88
2023-12-27T13:55:30.814Z,101687.06
2023-12-27T13:57:57.799Z,101695.91
2023-12-27T14:00:25.338Z,101703.91
2023-12-27T14:02:52.260Z,101702.16
2023-12-27T14:05:19.324Z,101712.97
2023-12-27T14:07:50.118Z,101720.19
2023-12-27T14:10:19.634Z,101717.69
2023-12-27T14:12:46.348Z,101726.50
2023-12-27T14:15:14.632Z,101727.53
2023-12-27T14:17:42.929Z,101729.09
2023-12-27T14:20:16.339Z,101722.84
2023-12-27T14:22:43.621Z,101730.63
2023-12-27T14:25:11.744Z,101730.63
2023-12-27T14:27:40.390Z,101741.25
2023-12-27T14:30:08.446Z,101736.13
2023-12-27T14:32:35.328Z,101741.44
2023-12-27T14:35:05.487Z,101745.88
2023-12-27T14:37:33.108Z,101752.06
2023-12-27T14:40:00.353Z,101746.91
2023-12-27T14:42:28.700Z,101759.28
2023-12-27T14:44:55.658Z,101757.53
2023-12-27T14:47:22.719Z,101763.56
2023-12-27T14:49:49.904Z,101761.75
2023-12-27T14:52:16.896Z,101764.25
2023-12-27T14:54:45.728Z,101779.22
2023-12-27T14:57:12.954Z,101771.09
2023-12-27T14:59:39.716Z,101778.19
2023-12-27T15:02:07.578Z,101781.72
2023-12-27T15:04:34.641Z,101787.03
2023-12-27T15:07:02.840Z,101775.66
2023-12-27T15:09:29.769Z,101765.88
2023-12-27T15:11:56.693Z,101785.50
2023-12-27T15:14:23.515Z,101784.53
2023-12-27T15:16:51.527Z,101789.09
2023-12-27T15:19:19.778Z,101790.03
2023-12-27T15:21:47.620Z,101796.28
2023-12-27T15:24:14.672Z,101798.88
2023-12-27T15:26:41.889Z,101787.38
2023-12-27T15:29:10.364Z,101805.88
2023-12-27T15:31:37.167Z,101800.56
2023-12-27T15:34:04.271Z,101796.13
2023-12-27T15:36:31.200Z,101799.72
2023-12-27T15:38:57.967Z,101810.34
2023-12-27T15:41:28.911Z,101801.59
2023-12-27T15:44:02.232Z,101807.69
2023-12-27T15:46:31.099Z,101809.56
2023-12-27T15:48:59.179Z,101805.38
2023-12-27T15:51:46.206Z,101809.56
2023-12-27T15:54:14.358Z,101816.84
2023-12-27T15:56:46.320Z,101819.63
2023-12-27T15:59:14.611Z,101821.50
2023-12-27T16:01:44.465Z,101820.69
2023-12-27T16:04:13.822Z,101816.34
2023-12-27T16:06:42.273Z,101818.03
2023-12-27T16:09:09.189Z,101826.81
2023-12-27T16:11:38.053Z,101832.13
2023-12-27T16:14:04.846Z,101828.66
2023-12-27T16:16:31.537Z,101825.25
2023-12-27T16:18:58.545Z,101827.13
2023-12-27T16:21:25.760Z,101827.91
2023-12-27T16:23:52.614Z,101828.66
2023-12-27T16:26:21.673Z,101834.78
2023-12-27T16:28:49.271Z,101825.09
2023-12-27T16:31:16.412Z,101840.19
2023-12-27T16:33:43.413Z,101834.16
2023-12-27T16:36:11.606Z,101843.84
2023-12-27T16:38:41.296Z,101826.97
2023-12-27T16:41:09.575Z,101826.97
2023-12-27T16:43:40.385Z,101827.81
2023-12-27T16:46:10.081Z,101826.28
2023-12-27T16:48:37.054Z,101825.44
2023-12-27T16:51:04.136Z,101817.53
2023-12-27T16:53:31.019Z,101811.44
2023-12-27T16:55:57.959Z,101813.25
2023-12-27T16:58:24.613Z,101809.19
2023-12-27T17:00:51.445Z,101817.78
2023-12-27T17:03:18.640Z,101810.66
2023-12-27T17:05:47.562Z,101805.44
2023-12-27T17:08:22.759Z,101817.03
2023-12-27T17:10:49.483Z,101811.84
2023-12-27T17:13:36.564Z,101822.47
2023-12-27T17:16:05.701Z,101816.31
2023-12-27T17:18:32.555Z,101824.22
2023-12-27T17:20:59.461Z,101821.47
2023-12-27T17:23:26.244Z,101808.28
2023-12-27T17:25:53.231Z,101815.47
2023-12-27T17:28:19.994Z,101817.16
2023-12-27T17:30:46.751Z,101819.06
2023-12-27T17:33:13.661Z,101822.66
2023-12-27T17:35:40.659Z,101816.56
2023-12-27T17:38:07.383Z,101809.53
2023-12-27T17:40:34.372Z,101809.53
2023-12-27T17:43:02.148Z,101801.75
2023-12-27T17:45:29.656Z,101798.31
2023-12-27T17:47:56.930Z,101800.19
2023-12-27T17:50:33.686Z,101816.13
2023-12-27T17:53:03.038Z,101813.47
2023-12-27T17:55:29.741Z,101805.66
2023-12-27T17:57:59.787Z,101815.50
2023-12-27T18:00:42.902Z,101821.94
2023-12-27T18:06:12.356Z,101816.78
2023-12-27T18:08:39.392Z,101804.63
2023-12-27T18:11:06.273Z,101810.72
2023-12-27T18:13:34.942Z,101794.28
2023-12-27T18:16:02.237Z,101818.69
2023-12-27T18:18:35.747Z,101832.03
2023-12-27T18:21:07.329Z,101836.47
2023-12-27T18:23:39.021Z,101837.81
2023-12-27T18:26:08.602Z,101849.13
2023-12-27T18:28:36.780Z,101850.22
2023-12-27T18:31:03.769Z,101845.69
2023-12-27T18:33:30.964Z,101851.00
2023-12-27T18:35:59.052Z,101850.06
2023-12-27T18:38:26.367Z,101851.00
2023-12-27T18:40:54.024Z,101835.22
2023-12-27T18:43:23.110Z,101845.69
2023-12-27T18:45:49.851Z,101851.00
2023-12-27T18:48:16.941Z,101851.16
2023-12-27T18:50:43.967Z,101844.28
2023-12-27T18:53:12.229Z,101842.50
2023-12-27T18:55:38.969Z,101841.63
2023-12-27T18:58:08.648Z,101846.16
2023-12-27T19:04:01.727Z,101847.25
2023-12-27T19:06:34.699Z,101837.75
2023-12-27T19:09:38.232Z,101851.78
2023-12-27T19:12:11.130Z,101836.03
2023-12-27T19:14:38.692Z,101827.63
2023-12-27T19:17:10.674Z,101820.44
2023-12-27T19:19:37.561Z,101814.19
2023-12-27T19:22:04.545Z,101804.66
2023-12-27T19:25:28.888Z,101805.63
2023-12-27T19:27:58.400Z,101803.09
2023-12-27T19:30:25.606Z,101802.25
2023-12-27T19:32:52.670Z,101811.06
2023-12-27T19:35:19.905Z,101815.44
2023-12-27T19:37:46.809Z,101824.34
2023-12-27T19:43:02.093Z,101824.56
2023-12-27T19:45:28.847Z,101820.19
2023-12-27T19:47:56.277Z,101826.53
2023-12-27T19:50:23.226Z,101819.41
2023-12-27T19:55:33.403Z,101823.09
2023-12-27T19:58:00.656Z,101818.03
2023-12-27T20:00:27.630Z,101827.09
2023-12-27T20:02:54.406Z,101821.84
2023-12-27T20:05:21.088Z,101825.41
2023-12-27T20:07:47.858Z,101835.03
2023-12-27T20:10:15.060Z,101822.88
2023-12-27T20:12:42.292Z,101828.25
2023-12-27T20:15:29.877Z,101824.81
2023-12-27T20:17:57.147Z,101817.69
2023-12-27T20:20:24.591Z,101813.25
2023-12-27T20:22:52.592Z,101819.44
2023-12-27T20:25:47.146Z,101821.97
2023-12-27T20:28:17.326Z,101812.09
2023-12-27T20:30:46.617Z,101823.53
2023-12-27T20:33:16.519Z,101824.44
2023-12-27T20:35:43.248Z,101804.06
2023-12-27T20:38:10.297Z,101801.16
2023-12-27T20:40:37.278Z,101814.22
2023-12-27T20:43:05.165Z,101809.69
2023-12-27T20:45:32.024Z,101812.03
2023-12-27T20:47:59.496Z,101817.00
2023-12-27T20:50:27.640Z,101814.19
2023-12-27T20:52:56.104Z,101823.63
2023-12-27T20:55:23.013Z,101811.84
2023-12-27T20:57:50.443Z,101803.88
2023-12-27T21:00:17.469Z,101803.69
2023-12-27T21:02:44.457Z,101793.78
2023-12-27T21:05:12.355Z,101794.47
2023-12-27T21:07:39.582Z,101792.75
2023-12-27T21:10:07.843Z,101804.00
2023-12-27T21:12:40.386Z,101811.97
2023-12-27T21:15:09.912Z,101804.78
2023-12-27T21:17:39.405Z,101792.44
2023-12-27T21:20:07.498Z,101778.06
2023-12-27T21:22:34.727Z,101771.66
2023-12-27T21:25:01.822Z,101760.06
2023-12-27T21:27:28.642Z,101759.22
2023-12-27T21:30:01.201Z,101762.91
2023-12-27T21:32:29.285Z,101757.41
2023-12-27T21:34:56.654Z,101740.78
2023-12-27T21:37:23.481Z,101740.66
2023-12-27T21:39:50.264Z,101740.56
2023-12-27T21:42:17.018Z,101720.44
2023-12-27T21:44:43.772Z,101719.31
2023-12-27T21:47:10.432Z,101728.06
2023-12-27T21:49:37.333Z,101720.16
2023-12-27T21:52:04.417Z,101705.28
2023-12-27T21:54:38.552Z,101713.13
2023-12-27T21:57:08.665Z,101706.97
2023-12-27T21:59:35.671Z,101713.81
2023-12-27T22:02:02.683Z,101706.72
2023-12-27T22:04:29.623Z,101689.16
2023-12-27T22:06:56.317Z,101700.75
2023-12-27T22:09:23.156Z,101701.84
2023-12-27T22:11:50.092Z,101690.69
2023-12-27T22:14:16.891Z,101679.38
2023-12-27T22:16:43.540Z,101705.91
2023-12-27T22:19:10.486Z,101698.13
2023-12-27T22:21:37.994Z,101702.69
2023-12-27T22:24:05.135Z,101690.31
2023-12-27T22:26:31.966Z,101704.56
2023-12-27T22:28:58.636Z,101704.56
2023-12-27T22:31:25.928Z,101702.06
2023-12-27T22:33:53.041Z,101699.59
2023-12-27T22:36:23.103Z,101689.81
2023-12-27T22:38:54.274Z,101673.97
2023-12-27T22:41:21.005Z,101671.31
2023-12-27T22:43:47.653Z,101667.88
2023-12-27T22:46:16.500Z,101674.94
2023-12-27T22:48:43.372Z,101659.16
2023-12-27T22:51:10.176Z,101653.00
2023-12-27T22:53:36.921Z,101641.69
2023-12-27T22:56:03.801Z,101645.28
2023-12-27T22:58:30.484Z,101640.00
2023-12-27T23:00:57.473Z,101652.47
2023-12-27T23:03:25.325Z,101662.31
2023-12-27T23:06:39.709Z,101636.72
2023-12-27T23:13:45.732Z,101628.50
2023-12-27T23:17:05.315Z,101641.91
2023-12-27T23:19:32.277Z,101640.66
2023-12-27T23:21:59.089Z,101636.91
2023-12-27T23:24:25.843Z,101652.63
2023-12-27T23:26:52.570Z,101625.94
2023-12-27T23:29:19.238Z,101597.53
2023-12-27T23:31:45.945Z,101599.06
2023-12-27T23:34:13.057Z,101588.53
2023-12-27T23:36:39.885Z,101600.44
2023-12-27T23:39:06.594Z,101610.88
2023-12-27T23:41:35.816Z,101605.59
2023-12-27T23:44:02.523Z,101600.09
2023-12-27T23:46:29.210Z,101582.53
2023-12-27T23:48:57.269Z,101566.34
2023-12-27T23:51:24.099Z,101562.91
2023-12-27T23:53:50.820Z,101550.59
2023-12-27T23:56:17.630Z,101547.19
2023-12-27T23:58:44.552Z,101523.47
